Time;durP1;ratioP1;P1;durP2;ratioP2;P2;SDS_P1;SDS_P2;PMS_P1;PMS_P2;Temp;Humidity;BMP_temperature;BMP_pressure;BME280_temperature;BME280_humidity;BME280_pressure;Samples;Min_cycle;Max_cycle;Signal;HPM_P1;HPM_P2
2020/12/14 00:01:35;;;;;;;1999.90;999.90;;;;;;;;;;5051997;28;20029;-79
2020/12/14 00:04:01;;;;;;;1999.90;999.90;;;;;;;;;;5030745;28;20559;-78
2020/12/14 00:06:27;;;;;;;1999.90;999.90;;;;;;;;;;5052157;28;20446;-78
2020/12/14 00:08:53;;;;;;;1999.90;999.90;;;;;;;;;;5053973;28;20029;-79
2020/12/14 00:11:19;;;;;;;1999.90;999.90;;;;;;;;;;5054336;28;20060;-78
2020/12/14 00:13:46;;;;;;;1999.90;999.90;;;;;;;;;;5053602;28;20496;-78
2020/12/14 00:16:12;;;;;;;1999.90;999.90;;;;;;;;;;5053235;28;20083;-78
2020/12/14 00:18:38;;;;;;;1999.90;999.90;;;;;;;;;;5052164;28;20021;-77
2020/12/14 00:21:04;;;;;;;1999.90;999.90;;;;;;;;;;5053710;28;20037;-78
2020/12/14 00:23:30;;;;;;;1999.90;999.90;;;;;;;;;;5035926;28;20028;-77
2020/12/14 00:25:56;;;;;;;1999.90;999.90;;;;;;;;;;5052228;28;20025;-77
2020/12/14 00:28:22;;;;;;;1999.90;999.90;;;;;;;;;;5052555;28;20476;-77
2020/12/14 00:30:48;;;;;;;1999.90;999.90;;;;;;;;;;5034102;28;20028;-77
2020/12/14 00:33:15;;;;;;;1999.90;999.90;;;;;;;;;;5052322;28;20033;-77
2020/12/14 00:35:40;;;;;;;1999.90;999.90;;;;;;;;;;5051912;28;20310;-79
2020/12/14 00:38:06;;;;;;;1999.90;999.90;;;;;;;;;;5035130;28;20219;-79
2020/12/14 00:40:33;;;;;;;1999.90;999.90;;;;;;;;;;5052957;28;20354;-79
2020/12/14 00:42:59;;;;;;;1999.90;999.90;;;;;;;;;;5052250;28;20021;-78
2020/12/14 00:45:25;;;;;;;1999.90;999.90;;;;;;;;;;5052633;28;20033;-78
2020/12/14 00:47:51;;;;;;;1999.90;999.90;;;;;;;;;;5052441;28;20025;-78
2020/12/14 00:50:17;;;;;;;1999.90;999.90;;;;;;;;;;5052543;28;20025;-78
2020/12/14 00:52:43;;;;;;;1999.90;999.90;;;;;;;;;;5051341;28;20029;-78
2020/12/14 00:55:09;;;;;;;1999.90;999.90;;;;;;;;;;5052613;28;20044;-79
2020/12/14 00:57:35;;;;;;;1999.90;999.90;;;;;;;;;;5051970;28;20025;-78
2020/12/14 01:00:01;;;;;;;1999.90;999.90;;;;;;;;;;5065286;28;20127;-79
2020/12/14 01:02:27;;;;;;;1999.90;999.90;;;;;;;;;;5071862;28;20036;-79
2020/12/14 01:04:53;;;;;;;1999.90;999.90;;;;;;;;;;5072329;28;20031;-79
2020/12/14 01:07:20;;;;;;;1999.90;999.90;;;;;;;;;;5068963;28;20426;-76
2020/12/14 01:09:46;;;;;;;1999.90;999.90;;;;;;;;;;5071288;28;20024;-78
2020/12/14 01:12:12;;;;;;;1999.90;999.90;;;;;;;;;;5072459;28;20020;-78
2020/12/14 01:14:38;;;;;;;1999.90;999.90;;;;;;;;;;5072826;28;20051;-79
2020/12/14 01:17:04;;;;;;;1999.90;999.90;;;;;;;;;;5073103;28;20025;-79
2020/12/14 01:19:30;;;;;;;1999.90;999.90;;;;;;;;;;5072895;28;20115;-78
2020/12/14 01:21:56;;;;;;;1999.90;999.90;;;;;;;;;;5055249;28;20466;-77
2020/12/14 01:24:22;;;;;;;1999.90;999.90;;;;;;;;;;5072790;28;20083;-78
2020/12/14 01:26:48;;;;;;;1999.90;999.90;;;;;;;;;;5071159;28;20048;-78
2020/12/14 01:29:14;;;;;;;1999.90;999.90;;;;;;;;;;5073440;28;20028;-77
2020/12/14 01:31:40;;;;;;;1999.90;999.90;;;;;;;;;;5054486;28;20028;-77
2020/12/14 01:34:06;;;;;;;1999.90;999.90;;;;;;;;;;5071989;28;20035;-78
2020/12/14 01:36:32;;;;;;;1999.90;999.90;;;;;;;;;;5074552;28;20029;-78
2020/12/14 01:38:58;;;;;;;1999.90;999.90;;;;;;;;;;5073638;28;20418;-76
2020/12/14 01:41:24;;;;;;;1999.90;999.90;;;;;;;;;;5074628;28;20055;-77
2020/12/14 01:43:50;;;;;;;1999.90;999.90;;;;;;;;;;5076333;28;20064;-78
2020/12/14 01:46:27;;;;;;;1999.90;999.90;;;;;;;;;;5082703;28;20035;-78
2020/12/14 01:48:53;;;;;;;1999.90;999.90;;;;;;;;;;5089377;28;20080;-79
2020/12/14 01:51:19;;;;;;;1999.90;999.90;;;;;;;;;;5090651;28;20138;-79
2020/12/14 01:53:45;;;;;;;1999.90;999.90;;;;;;;;;;5088488;28;20028;-79
2020/12/14 01:56:12;;;;;;;1999.90;999.90;;;;;;;;;;5089885;28;20033;-78
2020/12/14 01:58:38;;;;;;;1999.90;999.90;;;;;;;;;;5072997;28;20431;-78
2020/12/14 02:01:04;;;;;;;1999.90;999.90;;;;;;;;;;5073683;28;20033;-79
2020/12/14 02:03:30;;;;;;;1999.90;999.90;;;;;;;;;;5079066;28;20036;-77
2020/12/14 02:05:56;;;;;;;1999.90;999.90;;;;;;;;;;5070592;28;20095;-78
2020/12/14 02:08:22;;;;;;;1999.90;999.90;;;;;;;;;;5075164;28;20024;-78
2020/12/14 02:10:48;;;;;;;1999.90;999.90;;;;;;;;;;5075002;28;20127;-78
2020/12/14 02:13:14;;;;;;;1999.90;999.90;;;;;;;;;;5071091;28;20064;-78
2020/12/14 02:15:40;;;;;;;1999.90;999.90;;;;;;;;;;5070500;28;20036;-78
2020/12/14 02:18:06;;;;;;;1999.90;999.90;;;;;;;;;;5070509;28;20036;-79
2020/12/14 02:20:32;;;;;;;1999.90;999.90;;;;;;;;;;5054253;28;20025;-78
2020/12/14 02:22:58;;;;;;;1999.90;999.90;;;;;;;;;;5071281;28;20016;-79
2020/12/14 02:25:24;;;;;;;1999.90;999.90;;;;;;;;;;5071350;28;20474;-78
2020/12/14 02:27:50;;;;;;;1999.90;999.90;;;;;;;;;;5071245;28;20025;-78
2020/12/14 02:30:16;;;;;;;1999.90;999.90;;;;;;;;;;5071431;28;20024;-76
2020/12/14 02:32:42;;;;;;;1999.90;999.90;;;;;;;;;;5070350;28;20108;-78
2020/12/14 02:35:09;;;;;;;1999.90;999.90;;;;;;;;;;5071435;28;20072;-77
2020/12/14 02:37:35;;;;;;;1999.90;999.90;;;;;;;;;;5069958;28;20113;-78
2020/12/14 02:40:01;;;;;;;1999.90;999.90;;;;;;;;;;5071293;28;20443;-78
2020/12/14 02:42:27;;;;;;;1999.90;999.90;;;;;;;;;;5052433;28;20028;-78
2020/12/14 02:44:53;;;;;;;1999.90;999.90;;;;;;;;;;5069276;28;20024;-78
2020/12/14 02:47:20;;;;;;;1999.90;999.90;;;;;;;;;;5070568;28;20031;-78
2020/12/14 02:49:46;;;;;;;1999.90;999.90;;;;;;;;;;5051764;28;20111;-77
2020/12/14 02:52:13;;;;;;;1999.90;999.90;;;;;;;;;;5069572;28;20048;-78
2020/12/14 02:54:41;;;;;;;1999.90;999.90;;;;;;;;;;5069190;28;20522;-79
2020/12/14 02:57:07;;;;;;;1999.90;999.90;;;;;;;;;;5071072;28;20365;-79
2020/12/14 02:59:33;;;;;;;1999.90;999.90;;;;;;;;;;5070653;28;20048;-79
2020/12/14 03:01:59;;;;;;;1999.90;999.90;;;;;;;;;;5071517;28;20097;-79
2020/12/14 03:04:25;;;;;;;1999.90;999.90;;;;;;;;;;5069267;28;20025;-79
2020/12/14 03:06:51;;;;;;;1999.90;999.90;;;;;;;;;;5070846;28;20510;-79
2020/12/14 03:09:19;;;;;;;1999.90;999.90;;;;;;;;;;5070927;28;20475;-78
2020/12/14 03:11:45;;;;;;;1999.90;999.90;;;;;;;;;;5071065;28;20029;-79
2020/12/14 03:14:11;;;;;;;1999.90;999.90;;;;;;;;;;5069896;28;20028;-79
2020/12/14 03:16:44;;;;;;;1999.90;999.90;;;;;;;;;;5072911;28;20070;-78
2020/12/14 03:19:10;;;;;;;1999.90;999.90;;;;;;;;;;5075715;28;20017;-78
2020/12/14 03:21:36;;;;;;;1999.90;999.90;;;;;;;;;;5074849;28;20028;-78
2020/12/14 03:24:02;;;;;;;1999.90;999.90;;;;;;;;;;5073356;28;20480;-79
2020/12/14 03:26:28;;;;;;;1999.90;999.90;;;;;;;;;;5075563;28;20037;-79
2020/12/14 03:28:54;;;;;;;1999.90;999.90;;;;;;;;;;5075016;28;20096;-79
2020/12/14 03:31:20;;;;;;;1999.90;999.90;;;;;;;;;;5075300;28;20107;-79
2020/12/14 03:33:46;;;;;;;1999.90;999.90;;;;;;;;;;5074479;28;20055;-79
2020/12/14 03:36:13;;;;;;;1999.90;999.90;;;;;;;;;;5074684;28;20048;-79
2020/12/14 03:38:39;;;;;;;1999.90;999.90;;;;;;;;;;5075066;28;20552;-78
2020/12/14 03:41:05;;;;;;;1999.90;999.90;;;;;;;;;;5074896;28;20298;-77
2020/12/14 03:43:31;;;;;;;1999.90;999.90;;;;;;;;;;5073714;28;20035;-78
2020/12/14 03:45:58;;;;;;;1999.90;999.90;;;;;;;;;;5074956;28;20069;-79
2020/12/14 03:48:24;;;;;;;1999.90;999.90;;;;;;;;;;5072755;28;20029;-79
2020/12/14 03:50:50;;;;;;;1999.90;999.90;;;;;;;;;;5074780;28;20025;-78
2020/12/14 03:53:16;;;;;;;1999.90;999.90;;;;;;;;;;5073060;28;20058;-79
2020/12/14 03:55:42;;;;;;;1999.90;999.90;;;;;;;;;;5073799;28;20090;-78
2020/12/14 03:58:08;;;;;;;1999.90;999.90;;;;;;;;;;5073221;28;20503;-79
2020/12/14 04:00:34;;;;;;;1999.90;999.90;;;;;;;;;;5073412;28;20131;-79
2020/12/14 04:03:08;;;;;;;1999.90;999.90;;;;;;;;;;5073838;28;20422;-79
2020/12/14 04:05:34;;;;;;;1999.90;999.90;;;;;;;;;;5075114;28;20115;-78
2020/12/14 04:08:00;;;;;;;1999.90;999.90;;;;;;;;;;5075571;28;20070;-79
2020/12/14 04:10:27;;;;;;;1999.90;999.90;;;;;;;;;;5073998;28;20028;-79
2020/12/14 04:12:54;;;;;;;1999.90;999.90;;;;;;;;;;5073272;28;20119;-79
2020/12/14 04:15:20;;;;;;;1999.90;999.90;;;;;;;;;;5073860;28;20040;-79
2020/12/14 04:17:46;;;;;;;1999.90;999.90;;;;;;;;;;5073103;28;20472;-78
2020/12/14 04:20:12;;;;;;;1999.90;999.90;;;;;;;;;;5072987;28;20032;-79
2020/12/14 04:22:38;;;;;;;1999.90;999.90;;;;;;;;;;5073396;28;20438;-78
2020/12/14 04:25:04;;;;;;;1999.90;999.90;;;;;;;;;;5072980;28;20025;-78
2020/12/14 04:27:30;;;;;;;1999.90;999.90;;;;;;;;;;5072359;28;20024;-79
2020/12/14 04:29:56;;;;;;;1999.90;999.90;;;;;;;;;;5073058;28;20020;-79
2020/12/14 04:32:22;;;;;;;1999.90;999.90;;;;;;;;;;5073252;28;20117;-78
2020/12/14 04:34:48;;;;;;;1999.90;999.90;;;;;;;;;;5073036;28;20036;-78
2020/12/14 04:37:15;;;;;;;1999.90;999.90;;;;;;;;;;5073378;28;20037;-79
2020/12/14 04:39:42;;;;;;;1999.90;999.90;;;;;;;;;;5073209;28;20064;-78
2020/12/14 04:42:08;;;;;;;1999.90;999.90;;;;;;;;;;5073720;28;20074;-79
2020/12/14 04:44:35;;;;;;;1999.90;999.90;;;;;;;;;;5072068;28;20052;-78
2020/12/14 04:47:02;;;;;;;1999.90;999.90;;;;;;;;;;5073787;28;20431;-79
2020/12/14 04:49:30;;;;;;;1999.90;999.90;;;;;;;;;;5072642;28;20039;-78
2020/12/14 04:51:58;;;;;;;1999.90;999.90;;;;;;;;;;5072097;28;20027;-77
2020/12/14 04:54:24;;;;;;;1999.90;999.90;;;;;;;;;;5071485;28;20387;-79
2020/12/14 04:56:53;;;;;;;1999.90;999.90;;;;;;;;;;5072436;28;20032;-79
2020/12/14 04:59:23;;;;;;;1999.90;999.90;;;;;;;;;;5071800;28;20036;-79
2020/12/14 05:01:49;;;;;;;1999.90;999.90;;;;;;;;;;5072793;28;20024;-78
2020/12/14 05:04:15;;;;;;;1999.90;999.90;;;;;;;;;;5072166;28;20027;-79
2020/12/14 05:06:48;;;;;;;1999.90;999.90;;;;;;;;;;5071201;28;20044;-78
2020/12/14 05:09:18;;;;;;;1999.90;999.90;;;;;;;;;;5072196;28;20033;-79
2020/12/14 05:11:44;;;;;;;1999.90;999.90;;;;;;;;;;5072993;28;20095;-79
2020/12/14 05:14:21;;;;;;;1999.90;999.90;;;;;;;;;;5071748;28;20024;-79
2020/12/14 05:16:47;;;;;;;1999.90;999.90;;;;;;;;;;5073011;28;20576;-79
2020/12/14 05:19:19;;;;;;;1999.90;999.90;;;;;;;;;;5071379;28;20497;-79
2020/12/14 05:21:49;;;;;;;1999.90;999.90;;;;;;;;;;5072309;28;20379;-79
2020/12/14 05:24:19;;;;;;;1999.90;999.90;;;;;;;;;;5071997;28;20118;-78
2020/12/14 05:26:47;;;;;;;1999.90;999.90;;;;;;;;;;5071915;28;20116;-80
2020/12/14 05:29:21;;;;;;;1999.90;999.90;;;;;;;;;;5061220;28;20055;-79
2020/12/14 05:32:02;;;;;;;1999.90;999.90;;;;;;;;;;5072667;28;20039;-79
2020/12/14 05:34:46;;;;;;;1999.90;999.90;;;;;;;;;;5070110;28;20060;-79
2020/12/14 05:37:13;;;;;;;1999.90;999.90;;;;;;;;;;5063574;28;20610;-78
2020/12/14 05:39:39;;;;;;;1999.90;999.90;;;;;;;;;;5052738;28;20024;-79
2020/12/14 05:42:10;;;;;;;1999.90;999.90;;;;;;;;;;5072567;28;20109;-78
2020/12/14 05:44:36;;;;;;;1999.90;999.90;;;;;;;;;;5070892;28;20020;-79
2020/12/14 05:47:03;;;;;;;1999.90;999.90;;;;;;;;;;5070956;28;20503;-79
2020/12/14 05:49:29;;;;;;;1999.90;999.90;;;;;;;;;;5070402;28;20094;-78
2020/12/14 05:52:00;;;;;;;1999.90;999.90;;;;;;;;;;5072326;28;20032;-80
2020/12/14 05:54:34;;;;;;;1999.90;999.90;;;;;;;;;;5071214;28;20467;-79
2020/12/14 05:57:02;;;;;;;1999.90;999.90;;;;;;;;;;5070338;28;20040;-78
2020/12/14 05:59:28;;;;;;;1999.90;999.90;;;;;;;;;;5064641;28;20040;-77
2020/12/14 06:01:54;;;;;;;1999.90;999.90;;;;;;;;;;5059034;28;20035;-78
2020/12/14 06:04:21;;;;;;;1999.90;999.90;;;;;;;;;;5052234;28;20108;-78
2020/12/14 06:06:47;;;;;;;1999.90;999.90;;;;;;;;;;5036950;28;20054;-78
2020/12/14 06:09:21;;;;;;;1999.90;999.90;;;;;;;;;;5067230;28;20471;-79
2020/12/14 06:11:49;;;;;;;1999.90;999.90;;;;;;;;;;5071655;28;20033;-78
2020/12/14 06:14:15;;;;;;;1999.90;999.90;;;;;;;;;;5071531;28;20468;-77
2020/12/14 06:16:46;;;;;;;1999.90;999.90;;;;;;;;;;5066487;28;20098;-79
2020/12/14 06:19:13;;;;;;;1999.90;999.90;;;;;;;;;;5060807;28;20024;-79
2020/12/14 06:21:45;;;;;;;1999.90;999.90;;;;;;;;;;5070949;28;20487;-78
2020/12/14 06:24:24;;;;;;;1999.90;999.90;;;;;;;;;;5071519;28;20505;-79
2020/12/14 06:26:50;;;;;;;1999.90;999.90;;;;;;;;;;5063116;28;20111;-80
2020/12/14 06:29:29;;;;;;;1999.90;999.90;;;;;;;;;;5066551;28;20025;-80
2020/12/14 06:31:55;;;;;;;1999.90;999.90;;;;;;;;;;5067954;28;20102;-79
2020/12/14 06:34:33;;;;;;;1999.90;999.90;;;;;;;;;;5070891;28;20028;-79
2020/12/14 06:37:01;;;;;;;1999.90;999.90;;;;;;;;;;5066233;28;20032;-79
2020/12/14 06:39:33;;;;;;;1999.90;999.90;;;;;;;;;;5065461;28;20039;-81
2020/12/14 06:42:08;;;;;;;1999.90;999.90;;;;;;;;;;5066532;28;20036;-79
2020/12/14 06:44:34;;;;;;;1999.90;999.90;;;;;;;;;;5071114;28;20107;-80
2020/12/14 06:47:13;;;;;;;1999.90;999.90;;;;;;;;;;5063373;28;20048;-79
2020/12/14 06:49:39;;;;;;;1999.90;999.90;;;;;;;;;;5072559;28;20032;-81
2020/12/14 06:52:05;;;;;;;1999.90;999.90;;;;;;;;;;5064796;28;20033;-80
2020/12/14 06:54:44;;;;;;;1999.90;999.90;;;;;;;;;;5067395;28;20842;-80
2020/12/14 06:57:11;;;;;;;1999.90;999.90;;;;;;;;;;5068289;28;20054;-81
2020/12/14 06:59:37;;;;;;;1999.90;999.90;;;;;;;;;;5070248;28;20094;-82
2020/12/14 07:02:05;;;;;;;1999.90;999.90;;;;;;;;;;5068595;28;20483;-78
2020/12/14 07:04:31;;;;;;;1999.90;999.90;;;;;;;;;;5063036;28;20489;-78
2020/12/14 07:07:06;;;;;;;1999.90;999.90;;;;;;;;;;5053569;28;20388;-78
2020/12/14 07:09:34;;;;;;;1999.90;999.90;;;;;;;;;;5069311;28;20122;-78
2020/12/14 07:12:12;;;;;;;1999.90;999.90;;;;;;;;;;5069839;28;20025;-82
2020/12/14 07:14:51;;;;;;;1999.90;999.90;;;;;;;;;;5070416;28;20357;-78
2020/12/14 07:17:23;;;;;;;1999.90;999.90;;;;;;;;;;5068699;28;20028;-78
2020/12/14 07:19:50;;;;;;;1999.90;999.90;;;;;;;;;;5053056;28;20025;-78
2020/12/14 07:22:21;;;;;;;1999.90;999.90;;;;;;;;;;5070804;28;20175;-77
2020/12/14 07:24:57;;;;;;;1999.90;999.90;;;;;;;;;;5072719;28;20032;-78
2020/12/14 07:27:23;;;;;;;1999.90;999.90;;;;;;;;;;5071273;28;20039;-79
2020/12/14 07:29:49;;;;;;;1999.90;999.90;;;;;;;;;;5066164;28;20024;-79
2020/12/14 07:32:15;;;;;;;1999.90;999.90;;;;;;;;;;5070364;28;20029;-79
2020/12/14 07:34:51;;;;;;;1999.90;999.90;;;;;;;;;;5072877;28;20032;-79
2020/12/14 07:37:24;;;;;;;1999.90;999.90;;;;;;;;;;5067588;28;20025;-79
2020/12/14 07:39:51;;;;;;;1999.90;999.90;;;;;;;;;;5061950;28;20053;-78
2020/12/14 07:42:26;;;;;;;1999.90;999.90;;;;;;;;;;5068806;28;20565;-79
2020/12/14 07:45:08;;;;;;;1999.90;999.90;;;;;;;;;;5051060;28;20406;-79
2020/12/14 07:47:34;;;;;;;1999.90;999.90;;;;;;;;;;5069214;28;20028;-79
2020/12/14 07:50:14;;;;;;;1999.90;999.90;;;;;;;;;;5071110;28;20448;-79
2020/12/14 07:52:40;;;;;;;1999.90;999.90;;;;;;;;;;5063703;28;20031;-79
2020/12/14 07:55:08;;;;;;;1999.90;999.90;;;;;;;;;;5059621;28;20044;-77
2020/12/14 07:57:36;;;;;;;1999.90;999.90;;;;;;;;;;5053808;28;20025;-79
2020/12/14 08:00:03;;;;;;;1999.90;999.90;;;;;;;;;;5067346;28;20053;-80
2020/12/14 08:02:30;;;;;;;1999.90;999.90;;;;;;;;;;5073896;28;20032;-79
2020/12/14 08:05:00;;;;;;;1999.90;999.90;;;;;;;;;;5078475;28;20028;-78
2020/12/14 08:07:28;;;;;;;1999.90;999.90;;;;;;;;;;5047072;28;20035;-78
2020/12/14 08:09:54;;;;;;;1999.90;999.90;;;;;;;;;;5072079;28;20032;-79
2020/12/14 08:12:20;;;;;;;1999.90;999.90;;;;;;;;;;5074351;28;20032;-81
2020/12/14 08:14:50;;;;;;;1999.90;999.90;;;;;;;;;;5066054;28;20081;-79
2020/12/14 08:17:16;;;;;;;1999.90;999.90;;;;;;;;;;5058331;28;20033;-78
2020/12/14 08:19:44;;;;;;;1999.90;999.90;;;;;;;;;;5068344;28;20031;-78
2020/12/14 08:22:12;;;;;;;1999.90;999.90;;;;;;;;;;5063976;28;20021;-79
2020/12/14 08:24:39;;;;;;;1999.90;999.90;;;;;;;;;;5065948;28;20408;-78
2020/12/14 08:27:06;;;;;;;1999.90;999.90;;;;;;;;;;5069917;28;20025;-79
2020/12/14 08:29:33;;;;;;;1999.90;999.90;;;;;;;;;;5065311;28;20031;-79
2020/12/14 08:32:01;;;;;;;1999.90;999.90;;;;;;;;;;5071581;28;20557;-79
2020/12/14 08:34:37;;;;;;;1999.90;999.90;;;;;;;;;;5072033;28;20510;-80
2020/12/14 08:37:04;;;;;;;1999.90;999.90;;;;;;;;;;5066549;28;20029;-79
2020/12/14 08:39:30;;;;;;;1999.90;999.90;;;;;;;;;;5071306;28;20063;-79
2020/12/14 08:42:10;;;;;;;1999.90;999.90;;;;;;;;;;5066021;28;20039;-78
2020/12/14 08:44:37;;;;;;;1999.90;999.90;;;;;;;;;;5070685;28;20107;-78
2020/12/14 08:47:10;;;;;;;1999.90;999.90;;;;;;;;;;5050120;28;20031;-78
2020/12/14 08:49:36;;;;;;;1999.90;999.90;;;;;;;;;;5071960;28;20107;-78
2020/12/14 08:52:02;;;;;;;1999.90;999.90;;;;;;;;;;5065041;28;20595;-78
2020/12/14 08:54:29;;;;;;;1999.90;999.90;;;;;;;;;;5066343;28;20381;-78
2020/12/14 08:56:55;;;;;;;1999.90;999.90;;;;;;;;;;5067138;28;20017;-79
2020/12/14 08:59:23;;;;;;;1999.90;999.90;;;;;;;;;;5071602;28;20049;-80
2020/12/14 09:02:08;;;;;;;1999.90;999.90;;;;;;;;;;5070582;28;20021;-80
2020/12/14 09:04:36;;;;;;;1999.90;999.90;;;;;;;;;;5052580;28;20055;-79
2020/12/14 09:07:03;;;;;;;1999.90;999.90;;;;;;;;;;5067387;28;20024;-79
2020/12/14 09:09:39;;;;;;;1999.90;999.90;;;;;;;;;;5067757;28;20028;-82
2020/12/14 09:12:13;;;;;;;1999.90;999.90;;;;;;;;;;5065229;28;20484;-80
2020/12/14 09:14:39;;;;;;;1999.90;999.90;;;;;;;;;;5066838;28;20024;-80
2020/12/14 09:17:06;;;;;;;1999.90;999.90;;;;;;;;;;5054865;28;20117;-80
2020/12/14 09:19:33;;;;;;;1999.90;999.90;;;;;;;;;;5069371;28;20491;-80
2020/12/14 09:22:00;;;;;;;1999.90;999.90;;;;;;;;;;5064345;28;20553;-79
2020/12/14 09:24:26;;;;;;;1999.90;999.90;;;;;;;;;;5065253;28;20386;-80
2020/12/14 09:26:53;;;;;;;1999.90;999.90;;;;;;;;;;5065793;28;20681;-80
2020/12/14 09:29:19;;;;;;;1999.90;999.90;;;;;;;;;;5068428;28;20165;-80
2020/12/14 09:31:52;;;;;;;1999.90;999.90;;;;;;;;;;5071487;28;20132;-80
2020/12/14 09:34:19;;;;;;;1999.90;999.90;;;;;;;;;;5067268;28;20025;-81
2020/12/14 09:36:45;;;;;;;1999.90;999.90;;;;;;;;;;5042714;28;20032;-79
2020/12/14 09:39:11;;;;;;;1999.90;999.90;;;;;;;;;;5061554;28;20021;-79
2020/12/14 09:41:38;;;;;;;1999.90;999.90;;;;;;;;;;5061080;28;20036;-80
2020/12/14 09:44:04;;;;;;;1999.90;999.90;;;;;;;;;;5068176;28;20033;-80
2020/12/14 09:46:31;;;;;;;1999.90;999.90;;;;;;;;;;5062726;28;20052;-80
2020/12/14 09:48:57;;;;;;;1999.90;999.90;;;;;;;;;;5063995;28;20534;-81
2020/12/14 09:51:28;;;;;;;1999.90;999.90;;;;;;;;;;5069349;28;20566;-81
2020/12/14 09:53:55;;;;;;;1999.90;999.90;;;;;;;;;;5058952;28;20025;-82
2020/12/14 09:56:21;;;;;;;1999.90;999.90;;;;;;;;;;5062898;28;20037;-78
2020/12/14 09:58:47;;;;;;;1999.90;999.90;;;;;;;;;;5054002;28;20029;-81
2020/12/14 10:01:13;;;;;;;1999.90;999.90;;;;;;;;;;5059990;28;20037;-79
2020/12/14 10:03:40;;;;;;;1999.90;999.90;;;;;;;;;;5046727;28;20401;-83
2020/12/14 10:06:06;;;;;;;1999.90;999.90;;;;;;;;;;5064183;28;20059;-81
2020/12/14 10:08:32;;;;;;;1999.90;999.90;;;;;;;;;;5074232;28;20101;-83
2020/12/14 10:10:58;;;;;;;1999.90;999.90;;;;;;;;;;5063745;28;20028;-80
2020/12/14 10:13:24;;;;;;;1999.90;999.90;;;;;;;;;;5050477;28;20139;-82
2020/12/14 10:15:51;;;;;;;1999.90;999.90;;;;;;;;;;5035133;28;20034;-82
2020/12/14 10:18:17;;;;;;;1999.90;999.90;;;;;;;;;;5032264;28;20052;-86
2020/12/14 10:20:43;;;;;;;1999.90;999.90;;;;;;;;;;5049039;28;20396;-80
2020/12/14 10:23:10;;;;;;;1999.90;999.90;;;;;;;;;;5051392;28;20021;-80
2020/12/14 10:25:36;;;;;;;1999.90;999.90;;;;;;;;;;5042091;28;20032;-79
2020/12/14 10:28:03;;;;;;;1999.90;999.90;;;;;;;;;;5052108;28;20514;-78
2020/12/14 10:30:29;;;;;;;1999.90;999.90;;;;;;;;;;5052246;28;20021;-79
2020/12/14 10:32:55;;;;;;;1999.90;999.90;;;;;;;;;;5045551;28;20030;-77
2020/12/14 10:35:21;;;;;;;1999.90;999.90;;;;;;;;;;5042939;28;20040;-78
2020/12/14 10:37:47;;;;;;;1999.90;999.90;;;;;;;;;;5051177;28;20021;-77
2020/12/14 10:40:13;;;;;;;1999.90;999.90;;;;;;;;;;5043438;28;20061;-77
2020/12/14 10:42:39;;;;;;;1999.90;999.90;;;;;;;;;;5032007;28;20037;-79
2020/12/14 10:45:06;;;;;;;1999.90;999.90;;;;;;;;;;5036316;28;20136;-79
2020/12/14 10:47:32;;;;;;;1999.90;999.90;;;;;;;;;;5049237;28;20349;-78
2020/12/14 10:49:58;;;;;;;1999.90;999.90;;;;;;;;;;5036940;28;20032;-78
2020/12/14 10:52:24;;;;;;;1999.90;999.90;;;;;;;;;;5041423;28;20053;-80
2020/12/14 10:54:50;;;;;;;1999.90;999.90;;;;;;;;;;5041176;28;20444;-80
2020/12/14 10:57:17;;;;;;;1999.90;999.90;;;;;;;;;;5037880;28;20034;-79
2020/12/14 10:59:43;;;;;;;1999.90;999.90;;;;;;;;;;5057540;28;20512;-80
2020/12/14 11:02:09;;;;;;;1999.90;999.90;;;;;;;;;;5068491;28;20526;-81
2020/12/14 11:04:36;;;;;;;1999.90;999.90;;;;;;;;;;5069352;28;20017;-79
2020/12/14 11:07:02;;;;;;;1999.90;999.90;;;;;;;;;;5060096;28;20078;-80
2020/12/14 11:09:28;;;;;;;1999.90;999.90;;;;;;;;;;5070399;28;20016;-78
2020/12/14 11:11:54;;;;;;;1999.90;999.90;;;;;;;;;;5064053;28;20020;-79
2020/12/14 11:14:20;;;;;;;1999.90;999.90;;;;;;;;;;5064439;28;20070;-79
2020/12/14 11:16:46;;;;;;;1999.90;999.90;;;;;;;;;;5055952;28;20505;-80
2020/12/14 11:19:13;;;;;;;1999.90;999.90;;;;;;;;;;5068985;28;20045;-79
2020/12/14 11:21:39;;;;;;;1999.90;999.90;;;;;;;;;;5065169;28;20029;-79
2020/12/14 11:24:06;;;;;;;1999.90;999.90;;;;;;;;;;5069236;28;20013;-78
2020/12/14 11:26:32;;;;;;;1999.90;999.90;;;;;;;;;;5066547;28;20025;-79
2020/12/14 11:28:58;;;;;;;1999.90;999.90;;;;;;;;;;5063082;28;20384;-80
2020/12/14 11:31:24;;;;;;;1999.90;999.90;;;;;;;;;;5063798;28;20029;-78
2020/12/14 11:33:50;;;;;;;1999.90;999.90;;;;;;;;;;5061144;28;20026;-79
2020/12/14 11:36:16;;;;;;;1999.90;999.90;;;;;;;;;;5064349;28;20434;-80
2020/12/14 11:38:42;;;;;;;1999.90;999.90;;;;;;;;;;5071012;28;20399;-78
2020/12/14 11:41:10;;;;;;;1999.90;999.90;;;;;;;;;;5072206;28;20024;-77
2020/12/14 11:43:36;;;;;;;1999.90;999.90;;;;;;;;;;5074109;28;20024;-77
2020/12/14 11:46:03;;;;;;;1999.90;999.90;;;;;;;;;;5074677;28;20085;-79
2020/12/14 11:48:28;;;;;;;1999.90;999.90;;;;;;;;;;5064238;28;20018;-78
2020/12/14 11:50:55;;;;;;;1999.90;999.90;;;;;;;;;;5063716;28;20107;-77
2020/12/14 11:53:20;;;;;;;1999.90;999.90;;;;;;;;;;5068795;28;20522;-78
2020/12/14 11:55:47;;;;;;;1999.90;999.90;;;;;;;;;;5066693;28;20108;-78
2020/12/14 11:58:13;;;;;;;1999.90;999.90;;;;;;;;;;5068019;28;20468;-78
2020/12/14 12:00:39;;;;;;;1999.90;999.90;;;;;;;;;;5066697;28;20044;-77
2020/12/14 12:03:05;;;;;;;1999.90;999.90;;;;;;;;;;5050981;28;20025;-78
2020/12/14 12:05:31;;;;;;;1999.90;999.90;;;;;;;;;;5073470;28;20069;-77
2020/12/14 12:07:57;;;;;;;1999.90;999.90;;;;;;;;;;5070701;28;20112;-77
2020/12/14 12:10:23;;;;;;;1999.90;999.90;;;;;;;;;;5065519;28;20102;-78
2020/12/14 12:12:49;;;;;;;1999.90;999.90;;;;;;;;;;5074885;28;20032;-77
2020/12/14 12:15:15;;;;;;;1999.90;999.90;;;;;;;;;;5064124;28;20040;-78
2020/12/14 12:17:43;;;;;;;1999.90;999.90;;;;;;;;;;5060179;28;20028;-77
2020/12/14 12:20:09;;;;;;;1999.90;999.90;;;;;;;;;;5066584;28;20476;-78
2020/12/14 12:22:35;;;;;;;1999.90;999.90;;;;;;;;;;5066978;28;20075;-76
2020/12/14 12:25:01;;;;;;;1999.90;999.90;;;;;;;;;;5063614;28;20036;-80
2020/12/14 12:27:27;;;;;;;1999.90;999.90;;;;;;;;;;5071588;28;20476;-78
2020/12/14 12:29:53;;;;;;;1999.90;999.90;;;;;;;;;;5055224;28;20032;-76
2020/12/14 12:32:21;;;;;;;1999.90;999.90;;;;;;;;;;5067719;28;20424;-78
2020/12/14 12:34:47;;;;;;;1999.90;999.90;;;;;;;;;;5072696;28;20025;-78
2020/12/14 12:37:13;;;;;;;1999.90;999.90;;;;;;;;;;5071971;28;20032;-76
2020/12/14 12:39:39;;;;;;;1999.90;999.90;;;;;;;;;;5072239;28;20472;-77
2020/12/14 12:42:06;;;;;;;1999.90;999.90;;;;;;;;;;5054238;28;20078;-76
2020/12/14 12:44:32;;;;;;;1999.90;999.90;;;;;;;;;;5059309;28;20028;-77
2020/12/14 12:46:58;;;;;;;1999.90;999.90;;;;;;;;;;5070534;28;20025;-78
2020/12/14 12:49:24;;;;;;;1999.90;999.90;;;;;;;;;;5071370;28;20078;-78
2020/12/14 12:51:52;;;;;;;1999.90;999.90;;;;;;;;;;5074051;28;20066;-78
2020/12/14 12:54:19;;;;;;;1999.90;999.90;;;;;;;;;;5063582;28;20037;-78
2020/12/14 12:56:45;;;;;;;1999.90;999.90;;;;;;;;;;5059209;28;20036;-76
2020/12/14 12:59:11;;;;;;;1999.90;999.90;;;;;;;;;;5059063;28;20028;-78
2020/12/14 13:01:37;;;;;;;1999.90;999.90;;;;;;;;;;5058950;28;20025;-79
2020/12/14 13:04:03;;;;;;;1999.90;999.90;;;;;;;;;;5072347;28;20017;-78
2020/12/14 13:06:34;;;;;;;1999.90;999.90;;;;;;;;;;5036940;28;20376;-77
2020/12/14 13:09:00;;;;;;;1999.90;999.90;;;;;;;;;;5040651;28;20106;-78
2020/12/14 13:11:26;;;;;;;1999.90;999.90;;;;;;;;;;5069317;28;20482;-78
2020/12/14 13:13:52;;;;;;;1999.90;999.90;;;;;;;;;;5053729;28;20025;-79
2020/12/14 13:16:25;;;;;;;1999.90;999.90;;;;;;;;;;5068049;28;20041;-78
2020/12/14 13:18:55;;;;;;;1999.90;999.90;;;;;;;;;;5056270;28;20446;-79
2020/12/14 13:21:24;;;;;;;1999.90;999.90;;;;;;;;;;5060787;28;20028;-79
2020/12/14 13:23:50;;;;;;;1999.90;999.90;;;;;;;;;;5061785;28;20074;-78
2020/12/14 13:26:17;;;;;;;1999.90;999.90;;;;;;;;;;5065086;28;20037;-84
2020/12/14 13:28:43;;;;;;;1999.90;999.90;;;;;;;;;;5074312;28;20024;-77
2020/12/14 13:31:09;;;;;;;1999.90;999.90;;;;;;;;;;5063157;28;20576;-79
2020/12/14 13:33:35;;;;;;;1999.90;999.90;;;;;;;;;;5066788;28;20030;-79
2020/12/14 13:36:02;;;;;;;1999.90;999.90;;;;;;;;;;5067997;28;20044;-79
2020/12/14 13:38:28;;;;;;;1999.90;999.90;;;;;;;;;;5045805;28;20025;-76
2020/12/14 13:40:54;;;;;;;1999.90;999.90;;;;;;;;;;5047007;28;20074;-77
2020/12/14 13:43:20;;;;;;;1999.90;999.90;;;;;;;;;;5065179;28;20669;-79